• Join FlightAware (Why Join?)
  • Login
  • US Flag 
06:38AM EDT


 

Airport Tracker/Info


-or-


 

Live Flight TrackerFlight Track Log ✈ AAY817 ✈ 12-May-2014 ✈ KHTS - KPIE

Flight Track Log - Related Links

Times and Time Zones

All times are in EDT time to prevent confusion due to time zone crossing. See the AAY817 flight status page for this flight to view local times or setup timezone preferences in your user account.

Time Position Orientation Groundspeed Altitude Reporting Facility
EDT Latitude Longitude Course Direction KTS MPH feet Rate Location/Type
02:52PM 38.3781 -82.6294 210° Southwest 173 199 3,200  Level Indianapolis Center
02:53PM 38.3253 -82.6681 210° Southwest 219 252 4,900 2,160 Climbing Indianapolis Center
02:54PM 38.2525 -82.6853 191° South 261 300 7,800 2,460 Climbing Indianapolis Center
02:55PM 38.1739 -82.6828 179° South 279 321 10,000 1,920 Climbing Indianapolis Center
02:56PM 38.0781 -82.7067 191° South 301 346 11,800 1,920 Climbing Indianapolis Center
02:57PM 37.9817 -82.7333 192° South 343 395 14,000 2,220 Climbing Indianapolis Center
02:58PM 37.8764 -82.7344 180° South 373 429 16,500 1,980 Climbing Indianapolis Center
02:59PM 37.7692 -82.7342 180° South 379 436 18,100 1,740 Climbing Indianapolis Center
03:00PM 37.6569 -82.7300 178° South 396 456 20,100 2,040 Climbing Indianapolis Center
03:01PM 37.5228 -82.7258 179° South 408 470 22,400 1,920 Climbing Indianapolis Center
03:03PM 37.4053 -82.7236 179° South 415 478 24,100 1,560 Climbing Indianapolis Center
03:04PM 37.2850 -82.7197 179° South 424 488 25,700 1,440 Climbing Indianapolis Center
03:05PM 37.1628 -82.7164 179° South 432 497 27,100 1,260 Climbing Indianapolis Center
03:06PM 37.0378 -82.7125 179° South 440 506 28,400 1,200 Climbing Indianapolis Center
03:07PM 36.9081 -82.7083 179° South 452 520 29,600 1,200 Climbing Indianapolis Center
03:08PM 36.7769 -82.7056 179° South 458 527 31,000 1,380 Climbing Indianapolis Center
03:09PM 36.6281 -82.7025 179° South 457 526 32,500 1,260 Climbing Indianapolis Center
03:10PM 36.5011 -82.6992 179° South 456 525 33,700 1,140 Climbing Indianapolis Center
03:11PM 36.3744 -82.6958 179° South 456 525 34,900 960 Climbing Indianapolis Center
03:12PM 36.2492 -82.6922 179° South 454 522 35,800 480 Climbing Indianapolis Center
03:13PM 36.0967 -82.6897 179° South 455 524 36,000 60 Climbing Atlanta Center
03:14PM 35.9778 -82.6864 179° South 447 514 36,000 -60 Level Atlanta Center
03:15PM 35.8567 -82.6833 179° South 442 509 35,900  Descending Atlanta Center
03:16PM 35.7336 -82.6778 178° South 442 509 36,000  Climbing Atlanta Center
03:17PM 35.6125 -82.6747 179° South 442 509 36,000  Level Atlanta Center
03:18PM 35.4894 -82.6742 180° South 437 503 36,000  Level Atlanta Center
03:19PM 35.3664 -82.6711 179° South 442 509 36,000  Level Atlanta Center
03:20PM 35.2453 -82.6656 178° South 442 509 36,000  Level Atlanta Center
03:21PM 35.1244 -82.6675 181° South 442 509 36,000  Level Atlanta Center
03:22PM 35.0011 -82.6644 179° South 442 509 36,000  Level Atlanta Center
03:23PM 34.8781 -82.6589 178° South 442 509 36,000  Level Atlanta Center
03:24PM 34.7569 -82.6583 180° South 442 509 36,000  Level Atlanta Center
03:25PM 34.6339 -82.6528 178° South 442 509 36,000  Level Atlanta Center
03:26PM 34.5106 -82.6497 179° South 442 509 36,000  Level Atlanta Center
03:27PM 34.3875 -82.6469 179° South 442 509 36,000  Level Atlanta Center
03:28PM 34.2664 -82.6439 179° South 442 509 36,000  Level Atlanta Center
03:29PM 34.1453 -82.6408 179° South 437 503 36,000  Level Atlanta Center
03:30PM 34.0367 -82.6400 180° South 443 510 36,000  Level Atlanta Center
03:31PM 33.9178 -82.6394 180° South 437 503 36,000  Level Atlanta Center
03:32PM 33.7947 -82.6414 181° South 437 503 36,000  Level Atlanta Center
03:33PM 33.6672 -82.6336 177° South 447 514 36,000  Level Atlanta Center
03:34PM 33.5442 -82.6306 179° South 447 514 36,000  Level Atlanta Center
03:35PM 33.4103 -82.6253 178° South 435 501 36,000  Level Atlanta Center
03:36PM 33.2914 -82.6222 179° South 440 506 36,000  Level Atlanta Center
03:37PM 33.1722 -82.6167 178° South 440 506 36,000  Level Atlanta Center
03:39PM 32.8822 -82.6106 179° South 435 501 36,000  Level Jacksonville Center
03:40PM 32.7611 -82.6061 178° South 442 509 36,000  Level Jacksonville Center
03:41PM 32.6381 -82.6039 179° South 442 509 36,000  Level Jacksonville Center
03:42PM 32.5128 -82.6019 179° South 442 509 36,000  Level Jacksonville Center
03:43PM 32.3811 -82.5950 177° South 442 509 36,000  Level Jacksonville Center
03:44PM 32.2581 -82.5928 179° South 442 509 36,000  Level Jacksonville Center
03:45PM 32.1306 -82.5883 178° South 442 509 36,000  Level Jacksonville Center
03:46PM 32.0094 -82.5864 179° South 442 509 36,000  Level Jacksonville Center
03:47PM 31.8842 -82.5844 179° South 442 509 36,000  Level Jacksonville Center
03:48PM 31.7589 -82.5725 175° South 442 509 36,000  Level Jacksonville Center
03:49PM 31.6400 -82.5583 174° South 442 509 36,000  Level Jacksonville Center
03:50PM 31.5147 -82.5464 175° South 442 509 36,000  Level Jacksonville Center
03:51PM 31.3914 -82.5347 175° South 442 509 36,000 -60 Level Jacksonville Center
03:52PM 31.2828 -82.5281 177° South 442 509 35,900 -60 Descending Jacksonville Center
03:53PM 31.1575 -82.5164 175° South 442 509 35,900  Level Jacksonville Center
03:54PM 31.0322 -82.5022 174° South 447 514 36,000  Climbing Jacksonville Center
03:55PM 30.9111 -82.4906 175° South 447 514 36,000 -60 Level Jacksonville Center
03:56PM 30.7878 -82.4792 175° South 447 514 35,900  Descending Jacksonville Center
03:57PM 30.6647 -82.4650 174° South 442 509 36,000  Climbing Jacksonville Center
03:58PM 30.5392 -82.4536 176° South 442 509 36,000 -60 Level Jacksonville Center
03:59PM 30.4181 -82.4422 175° South 442 509 35,900 -180 Descending Jacksonville Center
04:00PM 30.2950 -82.4306 175° South 442 509 35,700 -600 Descending Jacksonville Center
04:01PM 30.1717 -82.4192 175° South 442 509 34,700 -960 Descending Jacksonville Center
04:02PM 30.0464 -82.4056 175° South 442 509 33,800 -1,020 Descending Jacksonville Center
04:03PM 29.9231 -82.3892 173° South 442 509 32,700 -1,320 Descending Jacksonville Center
04:04PM 29.8000 -82.3781 176° South 442 509 31,200 -1,560 Descending Jacksonville Center
04:05PM 29.6747 -82.3667 175° South 442 509 29,600 -2,880 Descending Jacksonville Center
04:06PM 29.5619 -82.3553 175° South 421 484 25,500 -2,880 Descending Jacksonville Center
04:07PM 29.4489 -82.3417 174° South 415 478 23,900 -960 Descending Jacksonville Center
04:08PM 29.3383 -82.3281 174° South 410 472 23,600 -1,200 Descending Jacksonville Center
04:09PM 29.2297 -82.3144 174° South 399 459 21,600 -1,980 Descending Jacksonville Center
04:10PM 29.1233 -82.3008 174° South 399 459 19,700 -1,920 Descending Jacksonville Center
04:11PM 29.0189 -82.2894 175° South 393 452 17,800 -1,800 Descending Jacksonville Center
04:12PM 28.9289 -82.2781 174° South 377 434 16,200 -1,740 Descending Jacksonville Center
04:14PM 28.7536 -82.2594 175° South 352 405 13,200 -1,740 Descending Miami Center
04:15PM 28.6589 -82.2572 179° South 339 390 11,500 -1,440 Descending Miami Center
04:16PM 28.5833 -82.3333 222° Southwest 321 369 10,200 -720 Descending Tampa TRACON
04:17PM 28.5333 -82.4167 236° Southwest 305 351 10,000 -60 Descending Tampa TRACON
04:18PM 28.5000 -82.5000 246° West 306 352 10,100  Climbing Tampa TRACON
04:19PM 28.4500 -82.5833 236° Southwest 307 353 10,000 -60 Descending Tampa TRACON
04:20PM 28.4000 -82.6667 236° Southwest 308 354 10,000  Level Tampa TRACON
04:21PM 28.3625 -82.7414 240° Southwest 307 353 10,000 -540 Level Miami Center
04:22PM 28.3178 -82.8242 238° Southwest 308 354 9,000 -540 Descending Miami Center
04:23PM 28.2700 -82.8864 229° Southwest 282 325 9,000 -600 Level Miami Center
04:25PM 28.1853 -82.8886 181° South 259 298 7,800 -1,140 Descending Miami Center
04:26PM 28.1208 -82.8886 180° South 242 278 6,700 -960 Descending Miami Center
04:27PM 28.0578 -82.8878 179° South 231 266 5,900 -840 Descending Miami Center
04:27PM 28.0167 -82.8667 156° South 181 208 5,200 -1,200 Descending Tampa TRACON
04:28PM 27.9667 -82.8500 164° South 187 215 3,900 -1,320 Descending Tampa TRACON
04:29PM 27.9333 -82.8167 139° Southeast 192 221 2,700 -660 Descending Tampa TRACON
04:30PM 27.8833 -82.7833 149° Southeast 194 223 2,600 -60 Descending Tampa TRACON
04:31PM 27.8333 -82.7667 164° South 176 203 2,600 -360 Level Tampa TRACON
04:32PM 27.8333 -82.7167 90° East 148 170 1,900 -900 Descending Tampa TRACON
04:33PM 27.8500 -82.6833 61° Northeast 139 160 900 -660 Descending Tampa TRACON
04:35PM 27.9081 -82.6864 357° North 151 174 300 -420 Descending Miami Center